createdAt,value
2018-05-16T00:00:39.894Z,97420.53
2018-05-16T00:03:07.440Z,97423.82
2018-05-16T00:05:34.978Z,97416.48
2018-05-16T00:08:02.519Z,97414.19
2018-05-16T00:10:30.184Z,97411.56
2018-05-16T00:12:57.795Z,97416.77
2018-05-16T00:15:25.371Z,97413.46
2018-05-16T00:17:53.588Z,97408.11
2018-05-16T00:20:21.074Z,97404.98
2018-05-16T00:22:48.526Z,97411.66
2018-05-16T00:25:16.697Z,97400.02
2018-05-16T00:27:44.253Z,97387.73
2018-05-16T00:30:11.850Z,97389.69
2018-05-16T00:32:43.436Z,97390.38
2018-05-16T00:35:10.880Z,97391.19
2018-05-16T00:37:38.420Z,97383.55
2018-05-16T00:40:05.900Z,97388.95
2018-05-16T00:42:33.377Z,97384.58
2018-05-16T00:45:00.861Z,97389.51
2018-05-16T00:47:28.332Z,97395.14
2018-05-16T00:49:55.788Z,97388.75
2018-05-16T00:52:23.299Z,97386.23
2018-05-16T00:54:50.897Z,97393.19
2018-05-16T00:57:19.276Z,97386.87
2018-05-16T00:59:46.715Z,97392.36
2018-05-16T01:02:14.187Z,97395.06
2018-05-16T01:04:42.284Z,97394.04
2018-05-16T01:07:09.758Z,97400.52
2018-05-16T01:09:37.234Z,97402.64
2018-05-16T01:12:04.704Z,97398.68
2018-05-16T01:14:32.756Z,97401.30
2018-05-16T01:17:00.229Z,97395.73
2018-05-16T01:19:27.772Z,97392.12
2018-05-16T01:21:55.217Z,97390.29
2018-05-16T01:24:22.685Z,97388.30
2018-05-16T01:26:50.195Z,97392.28
2018-05-16T01:29:17.733Z,97388.57
2018-05-16T01:31:45.187Z,97386.98
2018-05-16T01:34:12.969Z,97381.00
2018-05-16T01:36:40.409Z,97380.75
2018-05-16T01:39:07.933Z,97378.02
2018-05-16T01:41:35.391Z,97391.52
2018-05-16T01:44:02.899Z,97393.97
2018-05-16T01:46:30.345Z,97388.14
2018-05-16T01:49:09.471Z,97389.10
2018-05-16T01:51:36.932Z,97393.16
2018-05-16T01:54:04.509Z,97395.23
2018-05-16T01:56:33.316Z,97391.09
2018-05-16T01:59:01.263Z,97393.81
2018-05-16T02:01:28.731Z,97392.13
2018-05-16T02:03:56.474Z,97386.41
2018-05-16T02:06:23.944Z,97398.67
2018-05-16T02:08:51.419Z,97393.16
2018-05-16T02:11:18.927Z,97399.38
2018-05-16T02:13:46.376Z,97405.27
2018-05-16T02:16:13.941Z,97399.46
2018-05-16T02:18:41.409Z,97397.72
2018-05-16T02:21:09.211Z,97401.77
2018-05-16T02:23:36.692Z,97397.31
2018-05-16T02:26:04.430Z,97397.62
2018-05-16T02:28:31.887Z,97393.31
2018-05-16T02:30:59.459Z,97391.67
2018-05-16T02:33:27.122Z,97396.20
2018-05-16T02:35:55.007Z,97391.27
2018-05-16T02:38:22.472Z,97394.20
2018-05-16T02:40:49.926Z,97389.27
2018-05-16T02:43:17.391Z,97386.48
2018-05-16T02:45:44.837Z,97383.37
2018-05-16T02:48:12.321Z,97381.22
2018-05-16T02:50:40.010Z,97372.30
2018-05-16T02:53:07.523Z,97370.30
2018-05-16T02:55:34.977Z,97372.88
2018-05-16T02:58:02.797Z,97374.70
2018-05-16T03:00:30.857Z,97373.75
2018-05-16T03:02:58.620Z,97371.91
2018-05-16T03:05:26.066Z,97378.75
2018-05-16T03:07:53.864Z,97377.23
2018-05-16T03:10:21.353Z,97379.22
2018-05-16T03:12:48.890Z,97374.59
2018-05-16T03:15:16.365Z,97367.76
2018-05-16T03:17:43.805Z,97368.88
2018-05-16T03:20:11.330Z,97359.86
2018-05-16T03:22:39.066Z,97358.44
2018-05-16T03:25:06.548Z,97356.55
2018-05-16T03:27:33.986Z,97355.42
2018-05-16T03:30:01.467Z,97359.41
2018-05-16T03:32:28.972Z,97361.81
2018-05-16T03:34:56.717Z,97362.61
2018-05-16T03:37:24.255Z,97365.64
2018-05-16T03:39:51.729Z,97364.09
2018-05-16T03:42:19.497Z,97371.28
2018-05-16T03:44:46.974Z,97377.30
2018-05-16T03:47:14.443Z,97375.70
2018-05-16T03:49:41.986Z,97381.84
2018-05-16T03:52:09.506Z,97380.25
2018-05-16T03:54:37.019Z,97381.36
2018-05-16T04:00:14.557Z,97380.61
2018-05-16T04:02:53.851Z,97387.50
2018-05-16T04:05:21.305Z,97384.30
2018-05-16T04:07:49.261Z,97382.58
2018-05-16T04:10:17.035Z,97378.05
2018-05-16T04:12:44.500Z,97382.88
2018-05-16T04:15:11.959Z,97380.38
2018-05-16T04:17:39.467Z,97375.95
2018-05-16T04:20:06.940Z,97376.74
2018-05-16T04:22:34.431Z,97368.23
2018-05-16T04:25:01.952Z,97370.63
2018-05-16T04:27:29.436Z,97373.06
2018-05-16T04:29:57.649Z,97378.67
2018-05-16T04:32:25.258Z,97370.72
2018-05-16T04:34:52.832Z,97369.72
2018-05-16T04:37:20.419Z,97374.66
2018-05-16T04:39:47.887Z,97375.16
2018-05-16T04:42:15.415Z,97376.32
2018-05-16T04:44:43.069Z,97374.09
2018-05-16T04:47:11.470Z,97378.39
2018-05-16T04:49:39.029Z,97377.80
2018-05-16T04:52:06.510Z,97375.09
2018-05-16T04:54:34.058Z,97374.57
2018-05-16T04:57:03.003Z,97373.45
2018-05-16T04:59:30.501Z,97370.20
2018-05-16T05:01:57.959Z,97373.86
2018-05-16T05:04:25.542Z,97371.89
2018-05-16T05:06:53.044Z,97373.41
2018-05-16T05:09:20.616Z,97375.19
2018-05-16T05:11:48.691Z,97376.37
2018-05-16T05:14:16.209Z,97374.22
2018-05-16T05:16:45.380Z,97379.37
2018-05-16T05:19:12.860Z,97374.20
2018-05-16T05:21:40.336Z,97375.31
2018-05-16T05:24:08.157Z,97373.73
2018-05-16T05:26:35.564Z,97378.58
2018-05-16T05:29:03.052Z,97375.88
2018-05-16T05:31:30.549Z,97374.52
2018-05-16T05:33:58.010Z,97374.60
2018-05-16T05:36:25.493Z,97372.34
2018-05-16T05:38:53.106Z,97369.48
2018-05-16T05:41:20.664Z,97372.87
2018-05-16T05:43:48.468Z,97375.64
2018-05-16T05:46:15.911Z,97377.66
2018-05-16T05:48:43.454Z,97373.58
2018-05-16T05:51:10.957Z,97372.84
2018-05-16T05:53:38.505Z,97373.25
2018-05-16T05:56:05.970Z,97369.69
2018-05-16T05:58:33.424Z,97370.16
2018-05-16T06:01:00.907Z,97375.10
2018-05-16T06:03:28.386Z,97373.17
2018-05-16T06:05:56.115Z,97374.44
2018-05-16T06:08:23.608Z,97369.80
2018-05-16T06:10:51.093Z,97371.15
2018-05-16T06:13:18.571Z,97373.30
2018-05-16T06:15:46.029Z,97378.27
2018-05-16T06:18:13.492Z,97378.50
2018-05-16T06:20:41.023Z,97378.66
2018-05-16T06:23:09.661Z,97380.88
2018-05-16T06:25:37.140Z,97377.30
2018-05-16T06:28:05.120Z,97373.03
2018-05-16T06:30:32.690Z,97370.67
2018-05-16T06:33:00.159Z,97367.91
2018-05-16T06:35:28.782Z,97369.14
2018-05-16T06:37:56.485Z,97368.02
2018-05-16T06:40:23.951Z,97365.02
2018-05-16T06:42:51.457Z,97367.27
2018-05-16T06:45:18.991Z,97364.37
2018-05-16T06:47:46.515Z,97364.09
2018-05-16T06:50:13.989Z,97359.60
2018-05-16T06:52:41.449Z,97362.61
2018-05-16T06:55:09.154Z,97364.55
2018-05-16T06:57:36.649Z,97358.47
2018-05-16T07:00:04.135Z,97362.69
2018-05-16T07:02:31.676Z,97369.54
2018-05-16T07:04:59.192Z,97361.26
2018-05-16T07:07:26.704Z,97373.11
2018-05-16T07:09:54.172Z,97371.44
2018-05-16T07:12:21.636Z,97374.30
2018-05-16T07:14:49.201Z,97374.55
2018-05-16T07:17:16.729Z,97369.19
2018-05-16T07:19:44.175Z,97377.83
2018-05-16T07:22:11.651Z,97380.27
2018-05-16T07:24:39.187Z,97379.77
2018-05-16T07:27:06.669Z,97381.45
2018-05-16T07:29:34.869Z,97379.31
2018-05-16T07:32:02.326Z,97376.77
2018-05-16T07:34:29.842Z,97378.36
2018-05-16T07:36:57.389Z,97376.30
2018-05-16T07:39:25.554Z,97370.94
2018-05-16T07:41:53.416Z,97372.98
2018-05-16T07:44:20.913Z,97369.83
2018-05-16T07:46:48.437Z,97373.47
2018-05-16T07:49:15.934Z,97371.13
2018-05-16T07:51:44.033Z,97371.84
2018-05-16T07:54:11.506Z,97370.83
2018-05-16T07:56:39.071Z,97379.63
2018-05-16T07:59:06.653Z,97384.72
2018-05-16T08:01:34.497Z,97384.36
2018-05-16T08:04:01.963Z,97387.34
2018-05-16T08:06:29.461Z,97388.94
2018-05-16T08:08:57.052Z,97394.90
2018-05-16T08:11:24.494Z,97389.29
2018-05-16T08:13:51.963Z,97393.98
2018-05-16T08:16:19.852Z,97398.56
2018-05-16T08:18:47.293Z,97403.73
2018-05-16T08:21:14.771Z,97402.38
2018-05-16T08:23:42.223Z,97403.73
2018-05-16T08:26:10.450Z,97401.91
2018-05-16T08:28:37.931Z,97407.08
2018-05-16T08:31:05.540Z,97404.02
2018-05-16T08:33:32.945Z,97400.03
2018-05-16T08:36:00.495Z,97402.58
2018-05-16T08:38:28.696Z,97408.17
2018-05-16T08:40:56.578Z,97408.28
2018-05-16T08:43:24.016Z,97414.58
2018-05-16T08:45:51.464Z,97415.55
2018-05-16T08:48:19.635Z,97415.07
2018-05-16T08:50:47.095Z,97417.50
2018-05-16T08:53:14.744Z,97424.58
2018-05-16T08:55:42.196Z,97426.36
2018-05-16T08:58:09.791Z,97425.96
2018-05-16T09:00:37.329Z,97428.96
2018-05-16T09:03:04.937Z,97429.91
2018-05-16T09:05:33.603Z,97426.92
2018-05-16T09:08:01.737Z,97429.97
2018-05-16T09:10:29.285Z,97431.09
2018-05-16T09:12:57.521Z,97432.41
2018-05-16T09:15:25.023Z,97436.98
2018-05-16T09:17:52.502Z,97436.46
2018-05-16T09:20:20.071Z,97438.14
2018-05-16T09:22:47.528Z,97436.80
2018-05-16T09:25:15.200Z,97437.55
2018-05-16T09:27:42.793Z,97441.48
2018-05-16T09:30:10.387Z,97443.98
2018-05-16T09:32:37.972Z,97439.48
2018-05-16T09:35:05.546Z,97446.57
2018-05-16T09:37:33.291Z,97447.72
2018-05-16T09:40:02.822Z,97444.17
2018-05-16T09:42:30.345Z,97439.36
2018-05-16T09:44:57.863Z,97442.53
2018-05-16T09:47:25.336Z,97446.57
2018-05-16T09:49:53.312Z,97442.90
2018-05-16T09:52:20.808Z,97443.51
2018-05-16T09:54:48.692Z,97448.37
2018-05-16T09:57:16.190Z,97453.95
2018-05-16T09:59:44.373Z,97451.20
2018-05-16T10:02:12.003Z,97449.19
2018-05-16T10:04:39.514Z,97456.92
2018-05-16T10:07:06.949Z,97459.38
2018-05-16T10:09:34.455Z,97461.02
2018-05-16T10:12:01.927Z,97466.42
2018-05-16T10:14:30.687Z,97465.86
2018-05-16T10:16:58.214Z,97466.19
2018-05-16T10:19:26.304Z,97469.02
2018-05-16T10:21:53.796Z,97466.03
2018-05-16T10:24:21.388Z,97467.84
2018-05-16T10:26:48.856Z,97472.87
2018-05-16T10:29:16.475Z,97473.16
2018-05-16T10:31:44.375Z,97476.98
2018-05-16T10:34:12.210Z,97466.62
2018-05-16T10:36:39.662Z,97472.19
2018-05-16T10:39:07.150Z,97473.48
2018-05-16T10:41:34.656Z,97481.70
2018-05-16T10:44:02.078Z,97479.19
2018-05-16T10:46:29.618Z,97478.87
2018-05-16T10:48:57.137Z,97479.46
2018-05-16T10:51:25.063Z,97484.05
2018-05-16T10:53:52.510Z,97477.92
2018-05-16T10:56:20.051Z,97485.89
2018-05-16T10:58:47.905Z,97479.75
2018-05-16T11:01:15.461Z,97487.27
2018-05-16T11:03:42.930Z,97485.28
2018-05-16T11:06:10.475Z,97479.63
2018-05-16T11:08:38.433Z,97479.02
2018-05-16T11:11:05.915Z,97475.86
2018-05-16T11:13:33.396Z,97477.34
2018-05-16T11:16:01.037Z,97480.86
2018-05-16T11:18:28.499Z,97478.94
2018-05-16T11:20:56.223Z,97484.16
2018-05-16T11:23:23.698Z,97486.91
2018-05-16T11:25:51.199Z,97490.66
2018-05-16T11:28:18.699Z,97486.72
2018-05-16T11:30:46.316Z,97483.25
2018-05-16T11:33:13.822Z,97485.42
2018-05-16T11:35:41.279Z,97487.07
2018-05-16T11:38:08.757Z,97486.45
2018-05-16T11:40:36.713Z,97487.61
2018-05-16T11:43:04.595Z,97486.69
2018-05-16T11:45:32.041Z,97484.94
2018-05-16T11:47:59.531Z,97486.88
2018-05-16T11:50:26.998Z,97487.45
2018-05-16T11:52:54.842Z,97483.72
2018-05-16T11:55:22.339Z,97484.84
2018-05-16T11:57:50.034Z,97485.02
2018-05-16T12:00:17.495Z,97482.52
2018-05-16T12:02:45.023Z,97488.06
2018-05-16T12:05:12.663Z,97486.25
2018-05-16T12:07:40.115Z,97488.97
2018-05-16T12:10:07.701Z,97481.37
2018-05-16T12:12:35.247Z,97485.47
2018-05-16T12:15:02.731Z,97485.97
2018-05-16T12:20:05.060Z,97489.88
2018-05-16T12:22:33.722Z,97491.52
2018-05-16T12:25:01.200Z,97483.55
2018-05-16T12:27:28.717Z,97486.07
2018-05-16T12:29:56.223Z,97491.02
2018-05-16T12:32:23.709Z,97491.70
2018-05-16T12:34:51.526Z,97491.09
2018-05-16T12:37:19.037Z,97493.33
2018-05-16T12:39:46.587Z,97488.05
2018-05-16T12:42:14.092Z,97494.98
2018-05-16T12:44:41.694Z,97481.73
2018-05-16T12:47:09.232Z,97478.19
2018-05-16T12:49:36.720Z,97476.57
2018-05-16T12:52:04.195Z,97480.06
2018-05-16T12:54:32.332Z,97473.26
2018-05-16T12:57:00.202Z,97477.63
2018-05-16T12:59:27.670Z,97475.52
2018-05-16T13:01:56.471Z,97483.22
2018-05-16T13:04:23.943Z,97485.31
2018-05-16T13:06:51.413Z,97486.00
2018-05-16T13:09:19.319Z,97476.63
2018-05-16T13:11:46.791Z,97472.00
2018-05-16T13:14:14.370Z,97471.52
2018-05-16T13:16:41.849Z,97477.87
2018-05-16T13:19:09.334Z,97473.22
2018-05-16T13:21:36.871Z,97475.02
2018-05-16T13:24:04.274Z,97477.75
2018-05-16T13:26:31.763Z,97481.62
2018-05-16T13:28:59.574Z,97481.97
2018-05-16T13:31:27.332Z,97476.69
2018-05-16T13:33:54.843Z,97468.77
2018-05-16T13:36:22.530Z,97467.96
2018-05-16T13:38:49.937Z,97475.12
2018-05-16T13:41:17.515Z,97472.22
2018-05-16T13:43:48.456Z,97473.50
2018-05-16T13:46:16.021Z,97477.56
2018-05-16T13:48:43.599Z,97474.80
2018-05-16T13:51:11.079Z,97475.56
2018-05-16T13:53:39.257Z,97469.30
2018-05-16T13:56:07.552Z,97472.78
2018-05-16T13:58:34.991Z,97467.75
2018-05-16T14:01:03.362Z,97452.84
2018-05-16T14:03:31.170Z,97454.73
2018-05-16T14:05:58.662Z,97454.78
2018-05-16T14:08:26.172Z,97454.00
2018-05-16T14:10:54.021Z,97458.38
2018-05-16T14:13:21.503Z,97458.73
2018-05-16T14:15:50.010Z,97455.08
2018-05-16T14:18:17.621Z,97460.73
2018-05-16T14:20:45.410Z,97460.67
2018-05-16T14:23:13.145Z,97464.08
2018-05-16T14:25:41.806Z,97467.30
2018-05-16T14:28:09.704Z,97465.31
2018-05-16T14:30:38.025Z,97467.16
2018-05-16T14:33:05.960Z,97460.25
2018-05-16T14:35:33.400Z,97455.34
2018-05-16T14:38:01.716Z,97456.89
2018-05-16T14:40:29.302Z,97460.78
2018-05-16T14:42:59.862Z,97463.84
2018-05-16T14:45:28.193Z,97466.78
2018-05-16T14:47:55.621Z,97475.77
2018-05-16T14:50:24.095Z,97475.34
2018-05-16T14:52:52.003Z,97479.84
2018-05-16T14:55:20.152Z,97483.31
2018-05-16T14:57:49.382Z,97485.08
2018-05-16T15:00:16.944Z,97495.03
2018-05-16T15:02:46.701Z,97495.36
2018-05-16T15:05:14.978Z,97511.78
2018-05-16T15:07:42.411Z,97514.59
2018-05-16T15:10:09.913Z,97519.94
2018-05-16T15:12:37.355Z,97522.02
2018-05-16T15:15:04.906Z,97531.06
2018-05-16T15:17:32.348Z,97537.47
2018-05-16T15:19:59.825Z,97536.61
2018-05-16T15:22:27.272Z,97536.48
2018-05-16T15:24:54.765Z,97553.00
2018-05-16T15:27:22.239Z,97557.90
2018-05-16T15:29:49.727Z,97562.90
2018-05-16T15:32:17.263Z,97563.49
2018-05-16T15:34:44.712Z,97565.56
2018-05-16T15:37:12.664Z,97561.06
2018-05-16T15:39:40.137Z,97565.22
2018-05-16T15:42:07.732Z,97561.13
2018-05-16T15:44:35.230Z,97564.38
2018-05-16T15:47:02.799Z,97563.81
2018-05-16T15:49:30.279Z,97555.77
2018-05-16T15:51:57.763Z,97551.59
2018-05-16T15:54:26.670Z,97547.31
2018-05-16T15:56:54.371Z,97547.33
2018-05-16T15:59:22.122Z,97545.63
2018-05-16T16:01:49.670Z,97539.32
2018-05-16T16:04:20.923Z,97543.43
2018-05-16T16:06:48.597Z,97538.30
2018-05-16T16:09:16.077Z,97529.36
2018-05-16T16:11:43.543Z,97537.36
2018-05-16T16:14:12.168Z,97533.66
2018-05-16T16:16:39.791Z,97532.48
2018-05-16T16:19:07.316Z,97542.00
2018-05-16T16:21:34.776Z,97533.09
2018-05-16T16:24:02.267Z,97535.02
2018-05-16T16:26:30.343Z,97534.50
2018-05-16T16:28:58.252Z,97535.42
2018-05-16T16:31:25.841Z,97541.47
2018-05-16T16:33:53.355Z,97536.78
2018-05-16T16:36:21.188Z,97539.73
2018-05-16T16:38:48.743Z,97541.84
2018-05-16T16:41:16.218Z,97540.58
2018-05-16T16:43:45.966Z,97546.64
2018-05-16T16:46:13.865Z,97548.38
2018-05-16T16:48:41.378Z,97553.42
2018-05-16T16:51:09.757Z,97554.97
2018-05-16T16:53:37.767Z,97555.70
2018-05-16T16:56:05.474Z,97550.20
2018-05-16T16:58:34.825Z,97549.14
2018-05-16T17:01:02.530Z,97545.16
2018-05-16T17:03:30.030Z,97547.70
2018-05-16T17:05:57.633Z,97548.39
2018-05-16T17:08:25.115Z,97549.86
2018-05-16T17:10:52.741Z,97549.78
2018-05-16T17:13:21.416Z,97545.90
2018-05-16T17:15:48.898Z,97547.51
2018-05-16T17:18:16.430Z,97546.27
2018-05-16T17:20:44.407Z,97548.85
2018-05-16T17:23:12.672Z,97546.74
2018-05-16T17:25:40.917Z,97546.34
2018-05-16T17:28:08.422Z,97548.33
2018-05-16T17:30:35.939Z,97544.19
2018-05-16T17:33:03.414Z,97548.57
2018-05-16T17:35:30.882Z,97546.67
2018-05-16T17:37:59.584Z,97551.62
2018-05-16T17:40:27.090Z,97553.67
2018-05-16T17:42:56.520Z,97543.86
2018-05-16T17:45:25.120Z,97549.13
2018-05-16T17:47:54.706Z,97549.61
2018-05-16T17:50:22.246Z,97563.11
2018-05-16T17:52:51.040Z,97563.50
2018-05-16T17:55:18.527Z,97560.88
2018-05-16T17:57:46.082Z,97560.31
2018-05-16T18:00:13.571Z,97560.78
2018-05-16T18:02:41.044Z,97564.50
2018-05-16T18:05:09.636Z,97561.55
2018-05-16T18:07:37.083Z,97561.29
2018-05-16T18:10:05.300Z,97550.38
2018-05-16T18:12:32.838Z,97558.17
2018-05-16T18:15:21.919Z,97556.09
2018-05-16T18:17:52.194Z,97558.64
2018-05-16T18:20:19.833Z,97561.37
2018-05-16T18:22:48.150Z,97562.05
2018-05-16T18:25:16.296Z,97565.69
2018-05-16T18:27:44.708Z,97567.48
2018-05-16T18:30:13.114Z,97564.89
2018-05-16T18:32:40.746Z,97570.55
2018-05-16T18:35:09.484Z,97571.34
2018-05-16T18:37:38.072Z,97571.13
2018-05-16T18:40:05.528Z,97573.11
2018-05-16T18:42:33.164Z,97573.84
2018-05-16T18:45:04.345Z,97576.55
2018-05-16T18:47:32.707Z,97571.59
2018-05-16T18:50:00.228Z,97577.42
2018-05-16T18:52:27.741Z,97585.70
2018-05-16T18:54:55.197Z,97576.14
2018-05-16T18:57:23.552Z,97595.61
2018-05-16T18:59:51.870Z,97595.77
2018-05-16T19:02:20.190Z,97602.71
2018-05-16T19:04:47.683Z,97602.13
2018-05-16T19:07:15.161Z,97608.17
2018-05-16T19:09:42.611Z,97612.12
2018-05-16T19:12:10.238Z,97620.65
2018-05-16T19:14:39.043Z,97624.39
2018-05-16T19:17:06.489Z,97612.50
2018-05-16T19:19:34.119Z,97617.20
2018-05-16T19:22:01.831Z,97621.20
2018-05-16T19:24:30.181Z,97616.73
2018-05-16T19:26:57.801Z,97621.77
2018-05-16T19:29:25.264Z,97626.62
2018-05-16T19:31:52.731Z,97617.22
2018-05-16T19:34:20.242Z,97623.88
2018-05-16T19:36:47.736Z,97633.36
2018-05-16T19:39:17.809Z,97625.03
2018-05-16T19:41:45.345Z,97631.64
2018-05-16T19:44:12.891Z,97627.91
2018-05-16T19:46:40.401Z,97633.28
2018-05-16T19:49:07.916Z,97633.77
2018-05-16T19:51:35.484Z,97639.50
2018-05-16T19:54:03.900Z,97643.33
2018-05-16T19:56:31.382Z,97634.48
2018-05-16T19:58:58.952Z,97643.09
2018-05-16T20:01:26.428Z,97655.36
2018-05-16T20:03:53.926Z,97654.85
2018-05-16T20:06:21.404Z,97659.47
2018-05-16T20:08:48.952Z,97648.39
2018-05-16T20:11:16.519Z,97654.28
2018-05-16T20:13:43.996Z,97662.50
2018-05-16T20:16:12.562Z,97662.50
2018-05-16T20:18:40.052Z,97665.12
2018-05-16T20:21:07.570Z,97666.97
2018-05-16T20:23:35.075Z,97669.95
2018-05-16T20:26:02.985Z,97674.66
2018-05-16T20:28:30.712Z,97668.80
2018-05-16T20:30:58.308Z,97672.09
2018-05-16T20:33:25.821Z,97673.14
2018-05-16T20:35:53.493Z,97670.03
2018-05-16T20:38:20.974Z,97670.77
2018-05-16T20:43:22.542Z,97661.16
2018-05-16T20:45:50.219Z,97655.34
2018-05-16T20:48:17.686Z,97648.98
2018-05-16T20:50:45.256Z,97648.91
2018-05-16T20:53:12.666Z,97651.34
2018-05-16T20:55:40.137Z,97647.39
2018-05-16T20:58:07.625Z,97650.89
2018-05-16T21:00:35.137Z,97661.34
2018-05-16T21:03:02.629Z,97656.48
2018-05-16T21:05:30.149Z,97666.19
2018-05-16T21:07:57.602Z,97665.39
2018-05-16T21:10:25.055Z,97672.41
2018-05-16T21:12:52.544Z,97678.39
2018-05-16T21:15:20.018Z,97685.80
2018-05-16T21:17:47.575Z,97690.58
2018-05-16T21:20:15.061Z,97697.72
2018-05-16T21:22:42.533Z,97701.03
2018-05-16T21:25:09.979Z,97707.23
2018-05-16T21:27:37.450Z,97710.88
2018-05-16T21:30:05.005Z,97708.73
2018-05-16T21:32:32.487Z,97705.56
2018-05-16T21:34:59.940Z,97701.59
2018-05-16T21:37:27.381Z,97698.42
2018-05-16T21:39:55.087Z,97691.42
2018-05-16T21:42:22.600Z,97689.77
2018-05-16T21:44:50.070Z,97687.12
2018-05-16T21:47:18.161Z,97697.78
2018-05-16T21:49:45.810Z,97702.19
2018-05-16T21:52:15.005Z,97700.39
2018-05-16T21:54:42.493Z,97693.61
2018-05-16T21:57:09.992Z,97693.09
2018-05-16T21:59:38.730Z,97692.94
2018-05-16T22:02:07.659Z,97697.95
2018-05-16T22:04:36.227Z,97702.62
2018-05-16T22:07:04.481Z,97699.06
2018-05-16T22:09:31.959Z,97702.88
2018-05-16T22:11:59.483Z,97702.32
2018-05-16T22:14:27.287Z,97693.16
2018-05-16T22:16:54.728Z,97686.19
2018-05-16T22:19:22.259Z,97686.88
2018-05-16T22:21:49.753Z,97682.75
2018-05-16T22:24:17.209Z,97681.20
2018-05-16T22:26:44.726Z,97683.34
2018-05-16T22:29:12.549Z,97681.80
2018-05-16T22:31:46.889Z,97678.06
2018-05-16T22:34:19.967Z,97676.42
2018-05-16T22:36:54.585Z,97672.28
2018-05-16T22:39:28.438Z,97672.54
2018-05-16T22:42:02.148Z,97670.65
2018-05-16T22:44:35.328Z,97667.14
2018-05-16T22:47:02.814Z,97670.73
2018-05-16T22:49:30.283Z,97669.75
2018-05-16T22:51:57.730Z,97662.76
2018-05-16T22:54:25.455Z,97658.22
2018-05-16T22:56:52.910Z,97657.41
2018-05-16T22:59:20.513Z,97657.48
2018-05-16T23:01:48.405Z,97651.38
2018-05-16T23:04:17.173Z,97650.66
2018-05-16T23:06:44.635Z,97651.73
2018-05-16T23:09:12.162Z,97653.51
2018-05-16T23:11:40.132Z,97643.52
2018-05-16T23:14:07.783Z,97648.17
2018-05-16T23:16:36.212Z,97649.27
2018-05-16T23:19:03.822Z,97652.78
2018-05-16T23:21:31.279Z,97661.11
2018-05-16T23:26:33.842Z,97657.10
2018-05-16T23:29:01.306Z,97653.67
2018-05-16T23:31:28.799Z,97655.20
2018-05-16T23:33:56.329Z,97653.52
2018-05-16T23:36:24.642Z,97640.47
2018-05-16T23:38:52.153Z,97646.27
2018-05-16T23:41:19.636Z,97640.22
2018-05-16T23:43:47.189Z,97635.69
2018-05-16T23:46:15.375Z,97636.80
2018-05-16T23:48:42.838Z,97639.26
2018-05-16T23:51:10.350Z,97641.14
2018-05-16T23:53:37.855Z,97639.57
2018-05-16T23:56:05.344Z,97633.22
2018-05-16T23:58:32.774Z,97631.78
